Time;durP1;ratioP1;P1;durP2;ratioP2;P2;SDS_P1;SDS_P2;PMS_P1;PMS_P2;Temp;Humidity;BMP_temperature;BMP_pressure;BME280_temperature;BME280_humidity;BME280_pressure;Samples;Min_cycle;Max_cycle;Signal;HPM_P1;HPM_P2
2024/03/18 00:01:39;;;;;;;48.42;22.92;;;;;;;5.45;100.00;97709.19;4962300;28;20530;-76
2024/03/18 00:04:14;;;;;;;52.75;22.30;;;;;;;5.30;100.00;97701.81;4961318;28;20562;-76
2024/03/18 00:07:04;;;;;;;53.60;24.15;;;;;;;5.23;100.00;97699.47;4959986;28;20473;-76
2024/03/18 00:09:33;;;;;;;50.17;24.27;;;;;;;5.17;100.00;97697.06;4964437;28;20034;-74
2024/03/18 00:12:13;;;;;;;50.47;23.27;;;;;;;5.19;100.00;97687.25;4969762;28;20039;-75
2024/03/18 00:14:41;;;;;;;54.78;23.80;;;;;;;5.21;100.00;97693.34;4954505;28;20062;-76
2024/03/18 00:17:20;;;;;;;54.05;24.55;;;;;;;5.21;100.00;97682.75;4964771;28;20744;-75
2024/03/18 00:20:11;;;;;;;45.83;22.48;;;;;;;5.14;100.00;97675.94;4957381;28;20495;-75
2024/03/18 00:22:41;;;;;;;48.05;23.48;;;;;;;5.10;100.00;97685.81;4966720;28;20029;-76
2024/03/18 00:25:12;;;;;;;48.55;23.05;;;;;;;5.08;100.00;97678.81;4977803;28;20034;-76
2024/03/18 00:28:10;;;;;;;43.25;22.50;;;;;;;5.03;100.00;97688.75;4967828;28;20102;-77
2024/03/18 00:30:58;;;;;;;51.25;22.25;;;;;;;5.01;100.00;97680.88;4954576;28;20023;-76
2024/03/18 00:33:52;;;;;;;43.78;21.55;;;;;;;4.95;100.00;97680.25;4968406;28;20137;-76
2024/03/18 00:36:26;;;;;;;40.80;19.52;;;;;;;4.78;100.00;97676.44;4965780;28;20087;-76
2024/03/18 00:39:27;;;;;;;40.55;19.35;;;;;;;4.78;100.00;97673.78;4950017;28;20054;-76
2024/03/18 00:42:02;;;;;;;44.15;20.10;;;;;;;4.80;100.00;97661.31;4940786;28;20517;-75
2024/03/18 00:44:33;;;;;;;45.20;21.55;;;;;;;4.79;100.00;97664.91;4960305;28;20034;-76
2024/03/18 00:47:23;;;;;;;47.27;22.07;;;;;;;4.80;100.00;97671.91;4960173;28;20495;-76
2024/03/18 00:50:29;;;;;;;;;;;;;;;;;;;;;
2024/03/18 00:53:07;;;;;;;;;;;;;;;;;;;;;
2024/03/18 00:55:56;;;;;;;;;;;;;;;;;;;;;
2024/03/18 00:58:36;;;;;;;58.45;25.58;;;;;;;4.75;100.00;97662.41;4979852;28;20098;-76
2024/03/18 01:01:12;;;;;;;60.10;25.60;;;;;;;4.74;100.00;97655.38;4976509;28;20075;-76
2024/03/18 01:03:48;;;;;;;54.47;26.35;;;;;;;4.76;100.00;97657.09;4966022;28;20035;-76
2024/03/18 01:06:28;;;;;;;;;;;;;;;;;;;;;
2024/03/18 01:09:12;;;;;;;53.53;26.52;;;;;;;4.75;100.00;97663.28;4982280;28;20484;-75
2024/03/18 01:11:47;;;;;;;57.00;24.92;;;;;;;4.67;100.00;97653.91;4962186;28;20023;-76
2024/03/18 01:14:35;;;;;;;53.17;25.10;;;;;;;4.66;100.00;97658.34;4981798;28;20046;-76
2024/03/18 01:17:11;;;;;;;;;;;;;;;;;;;;;
2024/03/18 01:20:00;;;;;;;56.50;25.45;;;;;;;4.58;100.00;97647.16;4971977;28;20178;-76
2024/03/18 01:22:28;;;;;;;55.53;25.75;;;;;;;4.49;100.00;97644.81;4979490;28;20022;-76
2024/03/18 01:24:59;;;;;;;53.17;25.48;;;;;;;4.44;100.00;97638.84;4953157;28;20037;-76
2024/03/18 01:28:02;;;;;;;50.85;24.17;;;;;;;4.39;100.00;97635.50;4948280;28;20031;-76
2024/03/18 01:30:36;;;;;;;;;;;;;;;4.38;100.00;97641.72;4965023;28;20046;-75
2024/03/18 01:33:06;;;;;;;45.10;21.70;;;;;;;4.27;100.00;97633.31;4977032;28;19965;-76
2024/03/18 01:35:48;;;;;;;47.03;22.13;;;;;;;4.29;100.00;97626.16;4964548;28;20482;-76
2024/03/18 01:38:21;;;;;;;43.58;22.77;;;;;;;4.21;100.00;97628.22;4969598;28;20023;-76
2024/03/18 01:40:54;;;;;;;47.70;22.13;;;;;;;4.12;100.00;97617.97;4970461;28;20045;-76
2024/03/18 01:43:30;;;;;;;51.80;22.30;;;;;;;4.20;100.00;97637.94;4975786;28;20066;-75
2024/03/18 01:46:16;;;;;;;47.38;23.30;;;;;;;4.16;100.00;97614.28;4966524;28;20033;-76
2024/03/18 01:48:45;;;;;;;56.55;24.38;;;;;;;4.19;100.00;97622.09;4953910;28;20031;-76
2024/03/18 01:51:13;;;;;;;52.22;23.55;;;;;;;4.24;100.00;97617.53;4977146;28;20050;-75
2024/03/18 01:53:50;;;;;;;51.50;24.75;;;;;;;4.15;100.00;97612.56;4968592;28;20054;-74
2024/03/18 01:56:21;;;;;;;47.90;24.27;;;;;;;4.21;100.00;97615.84;4968485;28;20035;-75
2024/03/18 01:58:56;;;;;;;49.53;23.27;;;;;;;3.96;100.00;97622.06;4974083;28;20026;-76
2024/03/18 02:01:48;;;;;;;41.45;18.98;;;;;;;3.74;100.00;97606.94;4936148;28;20059;-76
2024/03/18 02:04:16;;;;;;;40.28;18.70;;;;;;;3.59;100.00;97614.50;4972559;28;20027;-76
2024/03/18 02:06:46;;;;;;;41.92;19.60;;;;;;;3.58;100.00;97615.41;4965143;28;20031;-76
2024/03/18 02:09:34;;;;;;;38.83;19.65;;;;;;;3.52;100.00;97602.41;4964842;28;20034;-76
2024/03/18 02:12:23;;;;;;;35.47;18.52;;;;;;;3.47;100.00;97622.84;4968071;28;20027;-74
2024/03/18 02:15:22;;;;;;;39.83;20.13;;;;;;;3.44;100.00;97610.59;4949974;29;20031;-75
2024/03/18 02:20:37;;;;;;;47.33;20.73;;;;;;;3.38;100.00;97587.00;4973669;28;20035;-76
2024/03/18 02:23:09;;;;;;;45.00;20.58;;;;;;;3.47;100.00;97618.44;4966796;28;20110;-76
2024/03/18 02:28:51;;;;;;;43.33;19.77;;;;;;;3.38;100.00;97583.50;4960986;28;20046;-76
2024/03/18 02:31:26;;;;;;;;;;;;;;;3.45;100.00;97614.09;4980762;28;20095;-76
2024/03/18 02:34:24;;;;;;;36.88;19.25;;;;;;;3.40;100.00;97592.22;4973369;28;19946;-77
2024/03/18 02:36:58;;;;;;;37.83;18.17;;;;;;;3.26;100.00;97590.06;4948792;28;20034;-77
2024/03/18 02:39:36;;;;;;;36.70;19.13;;;;;;;3.27;100.00;97589.13;4975901;28;20022;-77
2024/03/18 02:42:07;;;;;;;42.85;20.60;;;;;;;3.19;100.00;97591.16;4973468;28;20030;-76
2024/03/18 02:44:40;;;;;;;36.95;18.23;;;;;;;3.11;100.00;97590.50;4976797;28;20031;-76
2024/03/18 02:47:26;;;;;;;37.17;18.13;;;;;;;3.01;100.00;97589.97;4966595;28;20058;-76
2024/03/18 02:50:22;;;;;;;32.65;17.67;;;;;;;2.98;100.00;97600.63;4969295;28;20476;-77
2024/03/18 02:52:55;;;;;;;40.40;18.85;;;;;;;2.73;100.00;97587.31;4951822;28;20034;-76
2024/03/18 02:55:25;;;;;;;46.03;17.77;;;;;;;2.79;100.00;97590.69;4980873;28;20054;-76
2024/03/18 02:57:58;;;;;;;39.28;17.88;;;;;;;2.83;100.00;97587.03;4967895;28;20042;-76
2024/03/18 03:00:31;;;;;;;38.40;17.38;;;;;;;2.86;100.00;97586.94;4971778;28;20030;-76
2024/03/18 03:02:59;;;;;;;41.58;19.00;;;;;;;2.86;100.00;97610.72;4943811;29;20421;-76
2024/03/18 03:05:25;;;;;;;36.90;18.58;;;;;;;2.89;100.00;97597.41;4951321;28;20433;-76
2024/03/18 03:07:55;;;;;;;40.58;18.48;;;;;;;2.81;100.00;97579.16;4960740;28;20165;-76
2024/03/18 03:10:31;;;;;;;37.63;18.30;;;;;;;2.85;100.00;97603.69;4969163;28;20059;-76
2024/03/18 03:13:07;;;;;;;38.22;18.88;;;;;;;2.90;100.00;97599.13;4965958;28;20042;-76
2024/03/18 03:15:52;;;;;;;;;;;;;;;;;;;;;
2024/03/18 03:18:28;;;;;;;38.92;17.83;;;;;;;2.87;100.00;97578.09;4969837;28;20045;-75
2024/03/18 03:21:34;;;;;;;39.10;18.25;;;;;;;2.69;100.00;97568.97;4960930;28;20550;-75
2024/03/18 03:24:10;;;;;;;37.50;18.35;;;;;;;2.71;100.00;97594.41;4959781;28;20062;-76
2024/03/18 03:26:48;;;;;;;42.25;20.00;;;;;;;2.75;100.00;97584.63;4963734;28;20031;-77
2024/03/18 03:29:53;;;;;;;40.65;18.00;;;;;;;2.81;100.00;97589.72;4960910;28;20061;-76
2024/03/18 03:32:48;;;;;;;40.20;18.83;;;;;;;2.77;100.00;97581.94;4950510;28;20039;-75
2024/03/18 03:35:13;;;;;;;41.58;19.13;;;;;;;2.80;100.00;97587.97;4957268;28;20039;-76
2024/03/18 03:37:41;;;;;;;44.53;20.13;;;;;;;2.88;100.00;97579.81;4960308;28;20037;-76
2024/03/18 03:40:36;;;;;;;46.50;20.73;;;;;;;2.86;100.00;97569.28;4965268;28;20097;-76
2024/03/18 03:43:23;;;;;;;38.03;18.83;;;;;;;2.77;100.00;97571.38;4957803;28;20094;-76
2024/03/18 03:46:16;;;;;;;;;;;;;;;;;;;;;
2024/03/18 03:48:42;;;;;;;38.53;19.10;;;;;;;2.86;100.00;97586.94;4945193;28;20560;-77
2024/03/18 03:51:13;;;;;;;46.38;20.45;;;;;;;2.85;100.00;97579.91;4962905;28;20080;-76
2024/03/18 03:53:48;;;;;;;41.75;20.58;;;;;;;2.84;100.00;97572.91;4953844;28;20038;-75
2024/03/18 03:56:18;;;;;;;38.63;18.65;;;;;;;2.87;100.00;97578.09;4968686;28;20035;-76
2024/03/18 03:59:09;;;;;;;37.78;18.88;;;;;;;2.76;100.00;97581.06;4978994;28;20023;-76
2024/03/18 04:01:44;;;;;;;40.03;19.15;;;;;;;2.77;100.00;97577.50;4976268;28;20051;-76
2024/03/18 04:04:14;;;;;;;42.28;19.25;;;;;;;2.73;100.00;97576.75;4968043;28;20026;-76
2024/03/18 04:06:44;;;;;;;41.08;21.38;;;;;;;2.76;100.00;97567.00;4965412;28;20035;-76
2024/03/18 04:09:10;;;;;;;42.15;20.60;;;;;;;2.81;100.00;97568.59;4975570;28;20411;-77
2024/03/18 04:12:04;;;;;;;43.40;20.73;;;;;;;2.73;100.00;97567.97;4977122;28;20038;-77
2024/03/18 04:14:35;;;;;;;43.08;20.88;;;;;;;2.87;100.00;97570.16;4967506;28;20495;-77
2024/03/18 04:17:22;;;;;;;51.15;21.58;;;;;;;2.91;100.00;97566.53;4967703;28;20038;-75
2024/03/18 04:19:57;;;;;;;59.08;25.73;;;;;;;2.90;100.00;97564.78;4936717;29;20062;-75
2024/03/18 04:22:50;;;;;;;57.35;25.38;;;;;;;2.99;100.00;97572.41;4947512;28;20030;-75
2024/03/18 04:25:23;;;;;;;68.27;26.40;;;;;;;2.97;100.00;97561.91;4955096;28;20051;-75
2024/03/18 04:28:01;;;;;;;52.70;24.52;;;;;;;3.01;100.00;97575.91;4940760;29;20027;-76
2024/03/18 04:30:43;;;;;;;67.78;27.92;;;;;;;2.96;100.00;97573.38;4957751;28;20031;-77
2024/03/18 04:33:30;;;;;;;67.63;27.52;;;;;;;2.87;100.00;97568.38;4959444;28;20035;-77
2024/03/18 04:36:04;;;;;;;60.58;28.80;;;;;;;2.85;100.00;97570.22;4946079;28;20035;-76
2024/03/18 04:38:41;;;;;;;54.45;24.55;;;;;;;2.81;100.00;97571.22;4944603;28;20042;-76
2024/03/18 04:41:13;;;;;;;66.13;27.92;;;;;;;2.77;100.00;97560.81;4971407;28;20050;-76
2024/03/18 04:43:47;;;;;;;61.40;27.90;;;;;;;2.68;100.00;97569.88;4973897;28;20411;-76
2024/03/18 04:46:20;;;;;;;56.20;26.38;;;;;;;2.63;100.00;97574.44;4961266;28;20420;-75
2024/03/18 04:48:55;;;;;;;66.28;28.60;;;;;;;2.58;100.00;97577.22;4950611;28;20153;-76
2024/03/18 04:51:21;;;;;;;55.50;26.58;;;;;;;2.55;100.00;97589.66;4972276;28;20047;-73
2024/03/18 04:53:58;;;;;;;52.60;23.05;;;;;;;2.53;100.00;97575.59;4953208;28;20042;-73
2024/03/18 04:56:31;;;;;;;57.60;24.58;;;;;;;2.62;100.00;97581.47;4971552;28;20166;-72
2024/03/18 04:59:05;;;;;;;59.13;25.63;;;;;;;2.60;100.00;97578.03;4971707;28;20109;-69
2024/03/18 05:01:35;;;;;;;53.55;24.85;;;;;;;2.70;100.00;97595.34;4934994;28;20048;-74
2024/03/18 05:04:11;;;;;;;;;;;;;;;;;;;;;
2024/03/18 05:06:42;;;;;;;59.03;24.48;;;;;;;2.56;100.00;97575.50;4962415;28;20029;-77
2024/03/18 05:09:20;;;;;;;53.08;24.17;;;;;;;2.66;100.00;97596.34;4965062;28;20142;-76
2024/03/18 05:11:51;;;;;;;58.78;25.98;;;;;;;2.71;100.00;97582.97;4968715;28;20034;-77
2024/03/18 05:14:19;;;;;;;56.55;24.75;;;;;;;2.81;100.00;97592.34;4965434;28;20042;-75
2024/03/18 05:16:58;;;;;;;53.60;23.58;;;;;;;2.81;100.00;97583.56;4954795;28;20023;-76
2024/03/18 05:19:30;;;;;;;48.42;21.33;;;;;;;2.82;100.00;97577.38;4964076;28;20489;-76
2024/03/18 05:22:00;;;;;;;47.80;22.93;;;;;;;2.93;100.00;97575.25;4971811;28;20043;-76
2024/03/18 05:24:28;;;;;;;56.25;26.75;;;;;;;3.30;100.00;97583.72;4954962;28;20031;-76
2024/03/18 05:27:00;;;;;;;44.55;21.35;;;;;;;3.69;100.00;97581.56;4972271;28;20511;-76
2024/03/18 05:29:50;;;;;;;43.13;19.05;;;;;;;4.14;100.00;97581.72;4963479;28;20487;-76
2024/03/18 05:32:19;;;;;;;174.93;76.78;;;;;;;5.04;100.00;97571.22;4971222;28;20035;-75
2024/03/18 05:34:48;;;;;;;48.83;23.48;;;;;;;6.22;100.00;97584.78;4976251;28;20026;-76
2024/03/18 05:37:37;;;;;;;36.55;15.60;;;;;;;7.00;100.00;97564.34;4974481;28;20380;-76
2024/03/18 05:40:05;;;;;;;35.22;17.15;;;;;;;8.22;100.00;97537.75;4971781;28;20034;-76
2024/03/18 05:42:41;;;;;;;52.10;25.15;;;;;;;8.56;100.00;97519.06;4978595;28;20109;-75
2024/03/18 05:45:11;;;;;;;22.90;13.50;;;;;;;9.07;100.00;97505.53;4975873;28;20086;-76
2024/03/18 05:47:42;;;;;;;165.40;87.60;;;;;;;9.36;100.00;97495.84;4977074;28;20027;-77
2024/03/18 05:50:11;;;;;;;47.87;19.93;;;;;;;9.82;100.00;97484.16;4975953;28;20027;-76
2024/03/18 05:52:40;;;;;;;48.15;18.08;;;;;;;10.45;100.00;97493.72;4986672;28;20034;-77
2024/03/18 05:55:36;;;;;;;60.55;20.50;;;;;;;11.16;100.00;97473.94;4952063;28;20133;-74
2024/03/18 05:58:07;;;;;;;47.35;20.10;;;;;;;11.44;100.00;97467.63;4974893;28;20142;-77
2024/03/18 06:00:42;;;;;;;37.55;19.60;;;;;;;11.51;100.00;97473.41;4984728;28;20046;-75
2024/03/18 06:03:17;;;;;;;31.15;15.70;;;;;;;11.53;100.00;97464.31;4982725;28;20019;-74
2024/03/18 06:05:56;;;;;;;30.23;15.13;;;;;;;11.88;100.00;97467.31;4965180;28;20047;-75
2024/03/18 06:08:29;;;;;;;29.10;15.88;;;;;;;11.97;100.00;97466.69;4968538;28;20530;-77
2024/03/18 06:11:03;;;;;;;90.57;39.17;;;;;;;11.79;100.00;97468.81;4977572;28;20039;-77
2024/03/18 06:13:32;;;;;;;86.10;34.25;;;;;;;12.27;100.00;97464.56;4975891;28;20046;-78
2024/03/18 06:16:00;;;;;;;75.85;33.40;;;;;;;12.85;100.00;97447.84;4985556;28;20037;-77
2024/03/18 06:18:34;;;;;;;58.05;25.50;;;;;;;13.34;100.00;97446.94;4955437;28;20031;-77
2024/03/18 06:21:32;;;;;;;55.90;27.10;;;;;;;13.80;100.00;97449.72;4971662;28;20034;-76
2024/03/18 06:24:19;;;;;;;47.45;24.45;;;;;;;14.50;90.59;97434.34;4982329;28;20031;-76
2024/03/18 06:26:47;;;;;;;49.08;23.67;;;;;;;15.00;85.66;97449.13;4957724;29;20035;-77
2024/03/18 06:29:20;;;;;;;43.42;22.40;;;;;;;15.62;81.28;97436.75;4964044;28;20035;-77
2024/03/18 06:32:07;;;;;;;50.45;23.92;;;;;;;16.32;75.63;97427.16;4980586;28;20116;-77
2024/03/18 06:35:13;;;;;;;49.55;25.75;;;;;;;16.80;68.68;97421.03;4972446;28;20498;-77
2024/03/18 06:37:43;;;;;;;44.42;24.08;;;;;;;17.61;64.68;97422.66;4958058;28;20069;-76
2024/03/18 06:40:14;;;;;;;37.50;22.35;;;;;;;16.99;64.27;97419.38;4978146;28;20039;-77
2024/03/18 06:42:42;;;;;;;47.00;27.05;;;;;;;17.92;62.40;97409.00;4963873;28;20039;-76
2024/03/18 06:45:11;;;;;;;47.70;27.52;;;;;;;17.85;61.38;97419.53;4960297;28;20478;-78
2024/03/18 06:47:48;;;;;;;49.05;25.52;;;;;;;18.23;59.79;97418.63;4975534;28;20543;-77
2024/03/18 06:50:24;;;;;;;51.63;28.13;;;;;;;17.87;60.61;97421.09;4966842;28;20479;-77
2024/03/18 06:53:02;;;;;;;;;;;;;;;;;;;;;
2024/03/18 06:55:45;;;;;;;46.85;24.20;;;;;;;17.18;63.43;97416.75;4959353;28;20189;-76
2024/03/18 06:58:18;;;;;;;42.63;25.40;;;;;;;18.10;61.54;97402.69;4974369;28;20486;-76
2024/03/18 07:01:19;;;;;;;;;;;;;;;;;;;;;
2024/03/18 07:04:14;;;;;;;34.13;21.02;;;;;;;18.54;57.89;97397.63;4968244;28;20106;-78
2024/03/18 07:06:42;;;;;;;35.42;21.98;;;;;;;18.41;59.57;97385.25;4956259;28;20031;-76
2024/03/18 07:09:15;;;;;;;29.55;17.67;;;;;;;18.27;59.29;97385.69;4969639;28;20030;-74
2024/03/18 07:11:43;;;;;;;23.75;15.13;;;;;;;17.69;59.10;97393.03;4964941;28;20071;-75
2024/03/18 07:14:13;;;;;;;36.30;20.60;;;;;;;18.19;63.10;97395.56;4963403;28;20042;-78
2024/03/18 07:16:49;;;;;;;39.40;18.50;;;;;;;19.16;59.89;97383.38;4961823;29;20153;-77
2024/03/18 07:19:20;;;;;;;25.95;14.45;;;;;;;19.60;57.70;97381.63;4969011;28;20035;-77
2024/03/18 07:21:55;;;;;;;33.92;17.02;;;;;;;19.78;57.26;97372.47;4967726;28;20015;-77
2024/03/18 07:24:39;;;;;;;24.48;14.35;;;;;;;19.77;57.48;97367.22;4967731;28;20027;-75
2024/03/18 07:27:05;;;;;;;27.67;14.48;;;;;;;20.16;57.20;97365.84;4965493;28;20046;-75
2024/03/18 07:29:36;;;;;;;40.40;16.20;;;;;;;20.62;55.67;97355.63;4954356;28;20051;-75
2024/03/18 07:32:12;;;;;;;37.90;15.00;;;;;;;21.64;52.67;97343.56;4965452;28;20480;-78
2024/03/18 07:34:43;;;;;;;20.85;13.20;;;;;;;21.46;52.77;97351.03;4961725;28;20038;-76
2024/03/18 07:37:12;;;;;;;23.27;13.37;;;;;;;21.84;51.83;97342.19;4969215;28;20142;-75
2024/03/18 07:39:57;;;;;;;17.35;10.60;;;;;;;21.46;52.17;97341.00;4965728;28;20125;-75
2024/03/18 07:42:31;;;;;;;21.45;10.98;;;;;;;21.73;52.58;97342.53;4973019;28;20494;-78
2024/03/18 07:45:04;;;;;;;18.90;10.95;;;;;;;21.53;53.43;97352.06;4973922;28;20038;-77
2024/03/18 07:48:02;;;;;;;27.33;10.75;;;;;;;21.65;54.02;97342.56;4949939;28;21839;-76
2024/03/18 07:50:47;;;;;;;20.58;11.18;;;;;;;21.78;52.54;97331.16;4960137;28;20034;-75
2024/03/18 07:53:44;;;;;;;27.20;13.13;;;;;;;21.89;52.11;97339.00;4974404;28;20463;-77
2024/03/18 07:56:17;;;;;;;25.20;13.70;;;;;;;22.62;49.01;97323.38;4982272;28;20038;-75
2024/03/18 07:58:48;;;;;;;20.75;12.18;;;;;;;22.74;47.78;97321.16;4973501;28;20066;-77
2024/03/18 08:01:19;;;;;;;20.20;11.60;;;;;;;23.14;45.98;97302.72;4966838;28;20104;-74
2024/03/18 08:04:05;;;;;;;20.20;10.77;;;;;;;23.86;45.14;97306.00;4971389;28;20090;-77
2024/03/18 08:06:46;;;;;;;21.05;9.40;;;;;;;24.59;42.38;97294.38;4978965;28;20038;-77
2024/03/18 08:09:21;;;;;;;14.95;8.15;;;;;;;24.87;40.31;97281.75;4971094;28;20039;-76
2024/03/18 08:11:47;;;;;;;20.65;9.10;;;;;;;25.80;39.74;97292.72;4958229;29;20036;-77
2024/03/18 08:14:18;;;;;;;15.40;8.40;;;;;;;25.82;39.10;97283.25;4974037;28;20034;-76
2024/03/18 08:16:49;;;;;;;13.67;9.17;;;;;;;25.49;40.30;97282.09;4949349;29;20079;-78
2024/03/18 08:19:25;;;;;;;20.85;9.27;;;;;;;24.77;40.33;97276.53;4961206;28;20031;-74
2024/03/18 08:22:13;;;;;;;16.48;7.72;;;;;;;24.62;40.61;97272.09;4973265;28;20023;-76
2024/03/18 08:24:50;;;;;;;;;;;;;;;;;;;;;
2024/03/18 08:27:29;;;;;;;15.80;6.95;;;;;;;25.92;38.58;97271.97;4978712;28;20098;-78
2024/03/18 08:30:03;;;;;;;17.10;5.72;;;;;;;26.69;36.83;97252.72;4970750;28;20031;-76
2024/03/18 08:32:33;;;;;;;9.30;5.50;;;;;;;26.86;36.04;97256.81;4968103;28;20054;-75
2024/03/18 08:35:14;;;;;;;11.47;6.07;;;;;;;27.23;35.34;97258.25;4968150;28;20035;-76
2024/03/18 08:37:47;;;;;;;8.57;5.05;;;;;;;27.59;34.48;97242.31;4953300;28;20454;-75
2024/03/18 08:40:16;;;;;;;7.43;4.32;;;;;;;27.17;33.74;97235.19;4980933;28;20062;-77
2024/03/18 08:42:44;;;;;;;5.78;4.45;;;;;;;26.37;36.13;97244.06;4980325;28;20038;-76
2024/03/18 08:45:22;;;;;;;6.63;4.75;;;;;;;27.20;35.18;97229.28;4972711;28;20023;-76
2024/03/18 08:47:51;;;;;;;8.48;4.10;;;;;;;27.61;34.30;97231.09;4963552;28;20027;-77
2024/03/18 08:50:43;;;;;;;4.90;2.35;;;;;;;28.19;32.55;97223.94;4970185;28;20054;-75
2024/03/18 08:53:19;;;;;;;5.28;2.42;;;;;;;28.90;30.65;97214.69;4966118;28;20035;-76
2024/03/18 08:56:02;;;;;;;3.05;1.70;;;;;;;27.97;30.51;97215.88;4938468;28;20029;-75
2024/03/18 08:58:50;;;;;;;4.40;1.73;;;;;;;27.80;31.20;97222.03;4970083;28;20395;-75
2024/03/18 09:01:28;;;;;;;3.50;1.85;;;;;;;28.10;31.03;97212.31;4977838;28;20042;-76
2024/03/18 09:04:05;;;;;;;5.28;3.67;;;;;;;29.45;30.06;97209.53;4954381;28;20023;-78
2024/03/18 09:06:36;;;;;;;2.42;2.05;;;;;;;28.94;30.37;97210.44;4972155;28;20398;-77
2024/03/18 09:09:12;;;;;;;3.50;2.37;;;;;;;28.91;30.16;97201.75;4972366;28;20113;-77
2024/03/18 09:11:52;;;;;;;7.28;2.20;;;;;;;28.90;29.95;97200.06;4960946;28;20102;-77
2024/03/18 09:14:24;;;;;;;3.13;1.95;;;;;;;29.69;29.83;97200.47;4961108;28;20110;-77
2024/03/18 09:16:50;;;;;;;2.30;2.03;;;;;;;27.64;30.98;97195.78;4971688;28;20047;-76
2024/03/18 09:19:18;;;;;;;2.35;1.85;;;;;;;27.07;31.68;97199.03;4958205;29;20039;-77
2024/03/18 09:21:50;;;;;;;6.43;2.13;;;;;;;27.09;32.00;97199.69;4981554;28;20122;-76
2024/03/18 09:24:27;;;;;;;2.20;2.00;;;;;;;25.97;32.31;97192.72;4981670;28;20111;-77
2024/03/18 09:27:18;;;;;;;2.28;2.08;;;;;;;24.34;34.37;97194.50;4980572;28;20050;-75
2024/03/18 09:29:56;;;;;;;2.10;1.90;;;;;;;24.03;35.40;97200.97;4980762;28;20038;-77
2024/03/18 09:32:25;;;;;;;8.13;2.63;;;;;;;22.33;36.92;97205.94;4972717;28;20464;-77
2024/03/18 09:34:57;;;;;;;3.65;1.63;;;;;;;21.61;37.79;97194.16;4973300;28;20065;-77
2024/03/18 09:37:24;;;;;;;7.68;2.08;;;;;;;21.02;39.58;97215.22;4971399;28;20023;-74
2024/03/18 09:40:03;;;;;;;4.20;2.22;;;;;;;20.84;40.26;97209.06;4977244;28;20031;-78
2024/03/18 09:42:33;;;;;;;5.68;2.40;;;;;;;20.78;40.86;97208.88;4979320;28;20027;-77
2024/03/18 09:45:13;;;;;;;5.38;2.38;;;;;;;20.86;40.69;97198.88;4965382;28;20019;-76
2024/03/18 09:47:47;;;;;;;2.65;2.40;;;;;;;20.86;40.73;97189.84;4975285;28;20029;-76
2024/03/18 09:50:46;;;;;;;;;;;;;;;;;;;;;
2024/03/18 09:53:14;;;;;;;5.32;2.47;;;;;;;19.80;42.25;97202.19;4962189;28;20106;-75
2024/03/18 09:55:52;;;;;;;7.10;2.63;;;;;;;20.20;42.64;97192.53;4957579;28;20034;-76
2024/03/18 09:58:23;;;;;;;8.90;3.92;;;;;;;20.14;43.27;97190.47;4965072;28;20114;-77
2024/03/18 10:01:12;;;;;;;9.60;3.40;;;;;;;20.41;42.67;97196.56;4973874;28;20070;-76
2024/03/18 10:03:58;;;;;;;9.30;3.33;;;;;;;20.30;44.00;97198.72;4968117;28;20074;-77
2024/03/18 10:06:46;;;;;;;3.50;2.38;;;;;;;20.36;43.64;97196.22;4975791;28;20471;-77
2024/03/18 10:09:34;;;;;;;5.07;3.10;;;;;;;20.85;43.33;97194.47;4980321;28;20026;-75
2024/03/18 10:12:27;;;;;;;7.57;3.28;;;;;;;21.12;43.53;97212.38;4956832;28;20042;-76
2024/03/18 10:15:03;;;;;;;5.18;2.85;;;;;;;21.20;42.73;97203.34;4977359;28;20455;-77
2024/03/18 10:17:32;;;;;;;7.53;3.42;;;;;;;21.71;42.41;97191.25;4967209;28;20412;-75
2024/03/18 10:20:13;;;;;;;3.47;2.30;;;;;;;21.23;41.60;97189.41;4975368;28;20054;-77
2024/03/18 10:22:46;;;;;;;5.85;2.50;;;;;;;21.84;41.54;97189.69;4978903;28;20150;-78
2024/03/18 10:25:21;;;;;;;2.17;1.92;;;;;;;21.97;39.74;97175.56;4959559;28;20027;-75
2024/03/18 10:27:50;;;;;;;8.23;2.50;;;;;;;21.90;40.78;97167.22;4989111;28;20034;-78
2024/03/18 10:30:33;;;;;;;;;;;;;;;;;;;;;
2024/03/18 10:33:19;;;;;;;3.63;1.95;;;;;;;20.87;42.05;97169.81;4984759;28;20074;-77
2024/03/18 10:36:04;;;;;;;3.75;2.08;;;;;;;20.25;43.71;97173.88;4980410;28;20078;-76
2024/03/18 10:38:54;;;;;;;7.53;2.33;;;;;;;20.39;43.28;97166.00;4975868;28;20031;-76
2024/03/18 10:41:24;;;;;;;2.95;2.13;;;;;;;20.48;43.52;97158.72;4980477;28;20079;-76
2024/03/18 10:44:03;;;;;;;3.55;2.45;;;;;;;21.35;42.59;97155.44;4988767;28;20030;-77
2024/03/18 10:46:50;;;;;;;3.10;2.08;;;;;;;21.98;40.08;97142.72;4982610;28;20027;-77
2024/03/18 10:49:29;;;;;;;3.83;2.10;;;;;;;22.18;41.18;97143.13;4988048;28;20039;-74
2024/03/18 10:52:19;;;;;;;4.45;2.20;;;;;;;22.85;39.58;97138.03;4962057;28;20026;-75
2024/03/18 10:55:02;;;;;;;3.05;2.30;;;;;;;22.78;39.16;97131.59;4973694;28;20031;-76
2024/03/18 10:57:37;;;;;;;3.83;2.08;;;;;;;21.95;39.69;97129.44;4963426;28;20426;-77
2024/03/18 11:00:18;;;;;;;4.03;2.70;;;;;;;21.77;41.14;97136.97;4957643;28;20511;-77
2024/03/18 11:03:03;;;;;;;6.22;1.90;;;;;;;20.99;41.65;97136.69;4965368;28;20071;-77
2024/03/18 11:05:44;;;;;;;45.00;24.23;;;;;;;20.31;43.33;97136.06;4982691;28;20423;-76
2024/03/18 11:08:38;;;;;;;6.30;2.80;;;;;;;19.93;44.73;97131.97;4975555;28;20023;-76
2024/03/18 11:11:16;;;;;;;5.40;2.45;;;;;;;19.25;45.52;97141.06;4962040;28;20095;-76
2024/03/18 11:13:47;;;;;;;9.48;2.85;;;;;;;19.04;45.77;97137.84;4965680;29;20102;-76
2024/03/18 11:16:21;;;;;;;9.40;3.20;;;;;;;18.99;46.91;97130.19;4968833;28;21010;-77
2024/03/18 11:18:58;;;;;;;6.68;3.03;;;;;;;18.61;47.61;97142.19;4964608;28;20059;-75
2024/03/18 11:21:30;;;;;;;5.18;2.50;;;;;;;18.24;48.08;97133.34;4963308;28;20022;-77
2024/03/18 11:24:08;;;;;;;39.25;14.30;;;;;;;18.07;49.57;97144.97;4990130;28;20082;-76
2024/03/18 11:26:42;;;;;;;19.95;7.90;;;;;;;17.70;50.23;97135.03;4954754;29;20399;-75
2024/03/18 11:29:09;;;;;;;56.63;13.98;;;;;;;17.63;51.18;97139.34;4965822;29;20123;-76
2024/03/18 11:31:40;;;;;;;21.35;11.07;;;;;;;17.46;55.45;97142.78;4985469;28;20118;-76
2024/03/18 11:34:35;;;;;;;8.98;3.25;;;;;;;16.95;61.18;97136.94;4986234;28;20011;-77
2024/03/18 11:37:21;;;;;;;18.48;6.70;;;;;;;17.07;65.99;97141.19;4976511;28;20039;-78
2024/03/18 11:40:10;;;;;;;14.82;5.75;;;;;;;17.13;67.00;97135.22;4982283;28;20034;-76
2024/03/18 11:42:45;;;;;;;19.45;5.80;;;;;;;17.37;66.50;97129.31;4984939;28;20054;-77
2024/03/18 11:45:27;;;;;;;14.75;4.95;;;;;;;17.74;62.05;97113.97;4991317;28;20070;-77
2024/03/18 11:48:32;;;;;;;;;;;;;;;;;;;;;
2024/03/18 11:51:00;;;;;;;8.30;2.25;;;;;;;18.34;58.47;97101.59;4943486;29;20055;-76
2024/03/18 11:53:46;;;;;;;4.90;2.40;;;;;;;18.63;56.83;97096.00;4977415;28;20035;-75
2024/03/18 11:56:29;;;;;;;5.40;2.50;;;;;;;18.44;56.72;97094.25;4979512;28;20031;-77
2024/03/18 11:59:02;;;;;;;2.85;1.80;;;;;;;17.98;56.38;97105.28;4979416;28;20035;-75
2024/03/18 12:01:41;;;;;;;7.40;2.60;;;;;;;18.02;57.16;97114.81;4969171;28;20035;-76
2024/03/18 12:04:07;;;;;;;9.52;2.70;;;;;;;18.03;57.64;97111.94;4985890;28;20038;-74
2024/03/18 12:06:48;;;;;;;7.78;4.03;;;;;;;17.81;58.33;97110.47;4961222;29;20061;-78
2024/03/18 12:09:16;;;;;;;19.38;4.53;;;;;;;17.47;60.11;97109.34;4972909;28;20035;-73
2024/03/18 12:11:44;;;;;;;6.30;3.80;;;;;;;17.51;61.09;97107.19;4970906;28;20035;-72
2024/03/18 12:14:10;;;;;;;8.45;3.83;;;;;;;17.30;60.93;97096.59;4970587;28;20031;-73
2024/03/18 12:16:57;;;;;;;10.10;3.22;;;;;;;17.30;61.26;97093.88;4970744;28;20093;-75
2024/03/18 12:19:37;;;;;;;7.35;4.05;;;;;;;17.10;63.35;97086.84;4955294;28;20033;-73
2024/03/18 12:22:19;;;;;;;8.52;4.13;;;;;;;17.21;63.74;97097.47;4935792;28;20079;-73
2024/03/18 12:30:21;;;;;;;4.05;2.65;;;;;;;16.90;66.92;97082.47;4952699;28;20155;-74
2024/03/18 12:33:11;;;;;;;8.43;3.63;;;;;;;17.15;66.36;97081.84;4951362;28;20113;-73
2024/03/18 12:35:50;;;;;;;9.77;3.55;;;;;;;17.21;64.45;97083.97;4952557;28;20027;-75
2024/03/18 12:38:16;;;;;;;6.28;3.65;;;;;;;17.75;63.74;97078.63;4951502;28;20106;-74
2024/03/18 12:40:56;;;;;;;4.70;3.03;;;;;;;17.84;60.66;97069.59;4951826;28;20410;-72
2024/03/18 12:43:44;;;;;;;3.03;2.50;;;;;;;18.17;57.34;97062.69;4951210;28;20042;-73